createdAt,value
2022-11-01T00:01:27.574Z,301.38
2022-11-01T00:03:54.725Z,145.10
2022-11-01T00:06:22.257Z,217.70
2022-11-01T00:08:49.225Z,262.40
2022-11-01T00:11:17.917Z,202.63
2022-11-01T00:13:46.314Z,291.45
2022-11-01T00:16:13.967Z,163.82
2022-11-01T00:18:41.067Z,125.35
2022-11-01T00:21:08.336Z,151.20
2022-11-01T00:23:35.342Z,159.32
2022-11-01T00:26:02.308Z,400.17
2022-11-01T00:28:29.652Z,96.05
2022-11-01T00:30:57.499Z,146.13
2022-11-01T00:33:25.332Z,127.68
2022-11-01T00:35:52.741Z,174.68
2022-11-01T00:38:19.758Z,127.28
2022-11-01T00:40:47.038Z,175.70
2022-11-01T00:43:14.199Z,206.50
2022-11-01T00:45:44.500Z,221.65
2022-11-01T00:48:12.624Z,161.60
2022-11-01T00:50:40.507Z,149.98
2022-11-01T00:53:09.278Z,232.25
2022-11-01T00:55:36.365Z,174.13
2022-11-01T00:58:03.433Z,104.70
2022-11-01T01:00:30.548Z,128.27
2022-11-01T01:02:57.478Z,160.88
2022-11-01T01:05:24.718Z,207.88
2022-11-01T01:07:51.755Z,180.23
2022-11-01T01:10:19.017Z,168.07
2022-11-01T01:12:45.863Z,113.93
2022-11-01T01:15:14.367Z,138.40
2022-11-01T01:17:41.274Z,147.27
2022-11-01T01:20:08.907Z,133.40
2022-11-01T01:22:35.807Z,195.23
2022-11-01T01:25:02.751Z,128.63
2022-11-01T01:27:29.596Z,129.55
2022-11-01T01:29:56.444Z,210.52
2022-11-01T01:32:24.404Z,127.47
2022-11-01T01:34:51.421Z,200.13
2022-11-01T01:37:18.583Z,161.75
2022-11-01T01:39:46.250Z,178.65
2022-11-01T01:42:28.494Z,161.82
2022-11-01T01:44:55.348Z,262.88
2022-11-01T01:47:24.368Z,221.45
2022-11-01T01:50:14.076Z,146.50
2022-11-01T01:53:05.097Z,173.68
2022-11-01T01:55:40.788Z,93.88
2022-11-01T01:58:11.031Z,212.57
2022-11-01T02:00:38.891Z,128.13
2022-11-01T02:03:07.219Z,172.90
2022-11-01T02:05:54.963Z,125.13
2022-11-01T02:08:28.020Z,195.10
2022-11-01T02:13:28.120Z,315.35
2022-11-01T02:16:07.320Z,197.57
2022-11-01T02:18:43.345Z,267.08
2022-11-01T02:21:22.095Z,280.50
2022-11-01T02:24:07.416Z,262.80
2022-11-01T02:27:07.685Z,220.30
2022-11-01T02:29:56.109Z,289.15
2022-11-01T02:32:31.895Z,128.10
2022-11-01T02:35:06.765Z,243.75
2022-11-01T02:38:01.504Z,147.20
2022-11-01T02:40:59.279Z,129.00
2022-11-01T02:43:34.233Z,118.88
2022-11-01T02:46:23.294Z,297.20
2022-11-01T02:48:50.598Z,294.27
2022-11-01T02:51:20.739Z,169.65
2022-11-01T02:53:47.624Z,97.13
2022-11-01T02:56:16.545Z,165.73
2022-11-01T02:58:45.655Z,192.35
2022-11-01T03:01:19.340Z,270.92
2022-11-01T03:03:47.823Z,63.60
2022-11-01T03:06:52.380Z,45.25
2022-11-01T03:09:19.294Z,280.95
2022-11-01T03:12:14.996Z,200.80
2022-11-01T03:14:50.924Z,103.97
2022-11-01T03:17:46.726Z,71.18
2022-11-01T03:20:47.465Z,121.75
2022-11-01T03:23:22.910Z,209.90
2022-11-01T03:25:55.190Z,167.68
2022-11-01T03:28:33.759Z,212.70
2022-11-01T03:31:12.846Z,240.23
2022-11-01T03:33:49.141Z,280.27
2022-11-01T03:36:19.841Z,280.85
2022-11-01T03:39:02.488Z,84.10
2022-11-01T03:41:34.984Z,171.35
2022-11-01T03:44:02.902Z,209.27
2022-11-01T03:46:29.938Z,217.65
2022-11-01T03:48:57.227Z,272.65
2022-11-01T03:51:24.128Z,286.88
2022-11-01T03:53:50.971Z,219.68
2022-11-01T03:56:17.889Z,230.68
2022-11-01T03:58:45.281Z,252.68
2022-11-01T04:01:15.439Z,79.97
2022-11-01T04:03:42.795Z,198.35
2022-11-01T04:06:10.062Z,177.57
2022-11-01T04:08:37.334Z,132.40
2022-11-01T04:11:04.901Z,162.50
2022-11-01T04:13:32.014Z,195.45
2022-11-01T04:16:18.234Z,161.43
2022-11-01T04:19:03.736Z,320.25
2022-11-01T04:21:32.220Z,251.95
2022-11-01T04:23:59.166Z,216.20
2022-11-01T04:26:26.849Z,242.02
2022-11-01T04:28:59.465Z,141.93
2022-11-01T04:31:31.879Z,204.75
2022-11-01T04:33:59.989Z,274.60
2022-11-01T04:36:27.274Z,88.40
2022-11-01T04:38:55.946Z,238.95
2022-11-01T04:41:24.768Z,254.02
2022-11-01T04:43:54.646Z,272.65
2022-11-01T04:46:21.705Z,235.00
2022-11-01T04:48:48.777Z,185.13
2022-11-01T04:51:15.968Z,86.57
2022-11-01T04:53:42.879Z,239.30
2022-11-01T04:56:13.552Z,89.43
2022-11-01T04:58:44.814Z,63.17
2022-11-01T05:01:14.879Z,261.42
2022-11-01T05:03:42.761Z,115.05
2022-11-01T05:06:10.155Z,129.90
2022-11-01T05:08:37.057Z,46.17
2022-11-01T05:11:04.336Z,89.65
2022-11-01T05:13:31.322Z,96.50
2022-11-01T05:16:18.427Z,143.68
2022-11-01T05:18:45.460Z,87.13
2022-11-01T05:21:12.785Z,211.27
2022-11-01T05:23:39.639Z,84.88
2022-11-01T05:26:07.004Z,184.73
2022-11-01T05:28:35.159Z,203.00
2022-11-01T05:31:02.114Z,244.88
2022-11-01T05:33:28.989Z,150.15
2022-11-01T05:35:56.455Z,122.68
2022-11-01T05:38:23.290Z,104.63
2022-11-01T05:40:50.650Z,189.60
2022-11-01T05:43:17.547Z,133.25
2022-11-01T05:45:44.427Z,144.40
2022-11-01T05:48:12.120Z,143.90
2022-11-01T05:50:39.033Z,148.15
2022-11-01T05:53:10.423Z,89.57
2022-11-01T05:55:39.417Z,97.25
2022-11-01T05:58:06.700Z,74.75
2022-11-01T06:00:34.755Z,124.10
2022-11-01T06:03:02.197Z,120.03
2022-11-01T06:05:29.884Z,125.20
2022-11-01T06:07:56.874Z,140.30
2022-11-01T06:10:23.741Z,84.00
2022-11-01T06:12:50.567Z,67.13
2022-11-01T06:15:18.027Z,168.00
2022-11-01T06:17:44.913Z,49.88
2022-11-01T06:20:12.313Z,83.88
2022-11-01T06:22:39.824Z,113.57
2022-11-01T06:25:08.304Z,121.13
2022-11-01T06:27:35.326Z,117.20
2022-11-01T06:30:02.208Z,127.35
2022-11-01T06:32:29.445Z,126.70
2022-11-01T06:34:56.656Z,162.07
2022-11-01T06:37:23.509Z,90.55
2022-11-01T06:39:50.837Z,119.78
2022-11-01T06:42:17.821Z,118.00
2022-11-01T06:44:44.669Z,113.57
2022-11-01T06:47:13.031Z,131.52
2022-11-01T06:49:40.473Z,77.00
2022-11-01T06:52:08.031Z,163.65
2022-11-01T06:54:34.968Z,38.05
2022-11-01T06:57:01.849Z,54.38
2022-11-01T06:59:28.756Z,106.22
2022-11-01T07:01:55.754Z,37.60
2022-11-01T07:04:23.347Z,51.28
2022-11-01T07:06:50.576Z,46.33
2022-11-01T07:09:17.455Z,48.78
2022-11-01T07:11:44.319Z,65.05
2022-11-01T07:14:11.295Z,99.22
2022-11-01T07:16:39.126Z,57.17
2022-11-01T07:19:06.437Z,69.72
2022-11-01T07:21:33.300Z,77.55
2022-11-01T07:24:00.322Z,95.65
2022-11-01T07:26:27.203Z,56.83
2022-11-01T07:28:54.560Z,46.92
2022-11-01T07:31:21.882Z,81.95
2022-11-01T07:33:48.846Z,48.85
2022-11-01T07:36:15.777Z,65.00
2022-11-01T07:38:42.612Z,52.83
2022-11-01T07:41:09.457Z,53.85
2022-11-01T07:43:36.781Z,54.35
2022-11-01T07:46:05.719Z,40.70
2022-11-01T07:48:32.731Z,39.47
2022-11-01T07:51:00.374Z,31.95
2022-11-01T07:53:27.762Z,36.85
2022-11-01T07:55:59.500Z,39.33
2022-11-01T07:58:26.336Z,37.47
2022-11-01T08:00:53.974Z,35.47
2022-11-01T08:03:20.984Z,32.72
2022-11-01T08:05:48.551Z,30.20
2022-11-01T08:08:16.383Z,29.30
2022-11-01T08:10:43.410Z,34.80
2022-11-01T08:13:23.278Z,34.15
2022-11-01T08:15:51.640Z,36.47
2022-11-01T08:18:21.558Z,25.13
2022-11-01T08:20:48.883Z,26.15
2022-11-01T08:23:15.742Z,36.75
2022-11-01T08:25:42.685Z,31.70
2022-11-01T08:28:12.867Z,32.92
2022-11-01T08:30:41.230Z,30.77
2022-11-01T08:33:08.109Z,29.45
2022-11-01T08:35:35.616Z,37.05
2022-11-01T08:38:05.952Z,31.50
2022-11-01T08:40:34.016Z,24.95
2022-11-01T08:43:01.724Z,38.53
2022-11-01T08:45:29.282Z,41.97
2022-11-01T08:48:05.188Z,34.53
2022-11-01T08:50:33.978Z,26.35
2022-11-01T08:53:11.906Z,28.38
2022-11-01T08:55:39.211Z,26.90
2022-11-01T08:58:06.814Z,26.65
2022-11-01T09:00:34.826Z,21.15
2022-11-01T09:03:02.230Z,20.30
2022-11-01T09:05:31.341Z,22.00
2022-11-01T09:08:00.322Z,23.85
2022-11-01T09:10:29.283Z,22.00
2022-11-01T09:12:56.547Z,18.30
2022-11-01T09:15:23.677Z,24.70
2022-11-01T09:17:51.311Z,19.33
2022-11-01T09:20:18.622Z,20.83
2022-11-01T09:22:45.476Z,17.67
2022-11-01T09:25:12.774Z,24.15
2022-11-01T09:27:39.650Z,19.58
2022-11-01T09:30:07.141Z,25.58
2022-11-01T09:32:33.984Z,20.83
2022-11-01T09:35:00.837Z,17.48
2022-11-01T09:37:27.926Z,19.95
2022-11-01T09:39:55.125Z,17.95
2022-11-01T09:42:25.095Z,19.98
2022-11-01T09:44:55.667Z,17.10
2022-11-01T09:47:25.484Z,16.95
2022-11-01T09:50:15.455Z,17.67
2022-11-01T09:52:42.344Z,21.63
2022-11-01T09:55:19.451Z,17.33
2022-11-01T09:58:06.968Z,18.92
2022-11-01T10:00:44.670Z,17.10
2022-11-01T10:03:16.138Z,17.58
2022-11-01T10:05:55.065Z,17.70
2022-11-01T10:08:34.600Z,16.65
2022-11-01T10:11:26.089Z,20.67
2022-11-01T10:14:05.735Z,16.05
2022-11-01T10:16:43.654Z,18.05
2022-11-01T10:19:15.009Z,15.27
2022-11-01T10:21:49.804Z,21.27
2022-11-01T10:24:28.704Z,18.63
2022-11-01T10:27:04.880Z,18.45
2022-11-01T10:29:48.446Z,20.58
2022-11-01T10:32:34.136Z,20.27
2022-11-01T10:35:12.252Z,13.57
2022-11-01T10:38:04.096Z,16.63
2022-11-01T10:40:55.870Z,15.07
2022-11-01T10:43:25.470Z,16.95
2022-11-01T10:45:57.742Z,16.77
2022-11-01T10:48:29.950Z,14.17
2022-11-01T10:51:01.291Z,17.23
2022-11-01T10:53:30.657Z,15.02
2022-11-01T10:56:01.882Z,14.13
2022-11-01T10:58:40.517Z,17.13
2022-11-01T11:01:10.804Z,12.25
2022-11-01T11:03:41.227Z,12.70
2022-11-01T11:06:13.974Z,13.25
2022-11-01T11:08:43.870Z,10.70
2022-11-01T11:11:16.271Z,13.27
2022-11-01T11:13:47.489Z,11.52
2022-11-01T11:16:30.757Z,11.25
2022-11-01T11:19:21.880Z,10.18
2022-11-01T11:21:51.730Z,9.43
2022-11-01T11:24:20.078Z,15.52
2022-11-01T11:26:53.982Z,19.45
2022-11-01T11:29:49.060Z,10.27
2022-11-01T11:32:23.196Z,10.88
2022-11-01T11:35:15.009Z,11.02
2022-11-01T11:38:11.097Z,15.68
2022-11-01T11:40:40.916Z,9.95
2022-11-01T11:43:24.224Z,14.07
2022-11-01T11:48:32.207Z,19.50
2022-11-01T11:51:06.240Z,12.65
2022-11-01T11:53:34.099Z,15.48
2022-11-01T11:56:06.765Z,13.13
2022-11-01T11:58:36.141Z,10.25
2022-11-01T12:01:07.097Z,23.38
2022-11-01T12:04:06.198Z,10.75
2022-11-01T12:06:41.532Z,11.63
2022-11-01T12:09:33.446Z,11.15
2022-11-01T12:12:26.645Z,12.38
2022-11-01T12:14:55.767Z,12.85
2022-11-01T12:17:29.044Z,10.38
2022-11-01T12:20:20.044Z,15.90
2022-11-01T12:23:27.905Z,11.50
2022-11-01T12:25:57.709Z,18.90
2022-11-01T12:28:35.702Z,9.48
2022-11-01T12:31:15.392Z,13.25
2022-11-01T12:33:52.609Z,9.90
2022-11-01T12:36:28.667Z,18.85
2022-11-01T12:39:22.708Z,8.98
2022-11-01T12:41:57.326Z,10.45
2022-11-01T12:44:33.330Z,13.88
2022-11-01T12:47:20.146Z,10.65
2022-11-01T12:50:20.797Z,17.38
2022-11-01T12:52:57.789Z,13.52
2022-11-01T12:55:34.049Z,9.73
2022-11-01T12:58:03.837Z,10.70
2022-11-01T13:01:05.744Z,10.52
2022-11-01T13:03:52.115Z,17.17
2022-11-01T13:06:30.513Z,11.35
2022-11-01T13:09:21.627Z,14.07
2022-11-01T13:11:55.880Z,9.43
2022-11-01T13:14:53.113Z,14.35
2022-11-01T13:17:36.969Z,9.68
2022-11-01T13:20:19.431Z,14.35
2022-11-01T13:23:10.010Z,11.23
2022-11-01T13:25:42.968Z,12.52
2022-11-01T13:28:28.138Z,12.23
2022-11-01T13:31:17.598Z,10.68
2022-11-01T13:33:57.996Z,15.93
2022-11-01T13:36:30.354Z,12.55
2022-11-01T13:39:13.829Z,11.27
2022-11-01T13:41:57.704Z,15.38
2022-11-01T13:44:32.579Z,30.05
2022-11-01T13:47:13.899Z,12.57
2022-11-01T13:49:55.490Z,13.50
2022-11-01T13:52:29.105Z,17.50
2022-11-01T13:55:13.506Z,19.52
2022-11-01T13:57:44.957Z,10.80
2022-11-01T14:00:35.128Z,22.23
2022-11-01T14:03:17.566Z,12.38
2022-11-01T14:05:46.059Z,13.87
2022-11-01T14:08:27.981Z,11.02
2022-11-01T14:10:55.775Z,13.00
2022-11-01T14:13:37.943Z,15.85
2022-11-01T14:16:20.311Z,13.70
2022-11-01T14:19:05.213Z,13.35
2022-11-01T14:21:53.488Z,12.10
2022-11-01T14:24:32.009Z,19.05
2022-11-01T14:27:19.345Z,18.08
2022-11-01T14:29:50.528Z,29.92
2022-11-01T14:32:19.848Z,21.73
2022-11-01T14:35:04.917Z,22.15
2022-11-01T14:37:47.108Z,23.10
2022-11-01T14:40:32.146Z,21.95
2022-11-01T14:43:25.459Z,15.70
2022-11-01T14:46:01.211Z,14.20
2022-11-01T14:48:51.257Z,14.63
2022-11-01T14:51:39.353Z,12.00
2022-11-01T14:54:55.348Z,16.30
2022-11-01T14:57:33.043Z,10.52
2022-11-01T15:00:18.696Z,11.35
2022-11-01T15:02:45.661Z,10.30
2022-11-01T15:05:16.807Z,18.88
2022-11-01T15:07:49.376Z,11.48
2022-11-01T15:10:16.724Z,14.00
2022-11-01T15:12:53.669Z,16.05
2022-11-01T15:15:24.519Z,16.13
2022-11-01T15:18:01.213Z,11.48
2022-11-01T15:20:37.864Z,16.48
2022-11-01T15:23:11.167Z,15.85
2022-11-01T15:25:40.776Z,13.00
2022-11-01T15:28:07.796Z,16.08
2022-11-01T15:30:35.036Z,17.05
2022-11-01T15:33:27.937Z,19.73
2022-11-01T15:36:37.155Z,20.20
2022-11-01T15:39:21.225Z,22.08
2022-11-01T15:41:49.142Z,20.73
2022-11-01T15:44:27.238Z,19.98
2022-11-01T15:47:01.018Z,23.92
2022-11-01T15:49:41.912Z,20.33
2022-11-01T15:52:18.605Z,22.88
2022-11-01T15:54:54.073Z,21.15
2022-11-01T15:57:54.237Z,20.88
2022-11-01T16:00:32.051Z,22.75
2022-11-01T16:03:06.758Z,20.75
2022-11-01T16:05:40.905Z,30.52
2022-11-01T16:08:09.372Z,36.03
2022-11-01T16:10:36.865Z,33.97
2022-11-01T16:13:05.796Z,42.40
2022-11-01T16:15:35.123Z,47.10
2022-11-01T16:18:14.316Z,52.78
2022-11-01T16:20:41.633Z,63.30
2022-11-01T16:23:12.762Z,66.70
2022-11-01T16:25:39.948Z,58.70
2022-11-01T16:28:26.777Z,52.22
2022-11-01T16:30:55.400Z,43.88
2022-11-01T16:33:35.493Z,38.25
2022-11-01T16:36:23.789Z,35.30
2022-11-01T16:38:52.119Z,42.80
2022-11-01T16:41:46.640Z,39.03
2022-11-01T16:44:16.144Z,30.73
2022-11-01T16:46:43.373Z,35.83
2022-11-01T16:49:22.913Z,36.88
2022-11-01T16:51:50.885Z,39.28
2022-11-01T16:54:18.188Z,37.95
2022-11-01T16:56:48.258Z,45.78
2022-11-01T16:59:33.262Z,40.30
2022-11-01T17:02:01.991Z,79.88
2022-11-01T17:04:29.652Z,48.60
2022-11-01T17:07:00.026Z,48.33
2022-11-01T17:09:32.649Z,51.50
2022-11-01T17:11:59.541Z,51.92
2022-11-01T17:14:27.082Z,58.25
2022-11-01T17:16:56.598Z,55.28
2022-11-01T17:19:29.489Z,53.25
2022-11-01T17:21:58.144Z,54.90
2022-11-01T17:24:27.408Z,49.05
2022-11-01T17:26:57.977Z,50.90
2022-11-01T17:29:24.881Z,52.05
2022-11-01T17:31:51.733Z,47.75
2022-11-01T17:34:18.752Z,44.47
2022-11-01T17:36:48.737Z,48.88
2022-11-01T17:39:16.034Z,48.35
2022-11-01T17:41:43.292Z,47.90
2022-11-01T17:44:12.240Z,47.13
2022-11-01T17:46:40.103Z,45.42
2022-11-01T17:49:06.992Z,60.28
2022-11-01T17:51:34.309Z,57.85
2022-11-01T17:54:01.183Z,58.67
2022-11-01T17:56:28.259Z,120.25
2022-11-01T17:58:56.011Z,62.25
2022-11-01T18:01:23.221Z,49.15
2022-11-01T18:03:50.640Z,46.13
2022-11-01T18:06:18.014Z,52.00
2022-11-01T18:08:48.006Z,50.67
2022-11-01T18:11:36.400Z,54.25
2022-11-01T18:14:18.427Z,61.72
2022-11-01T18:16:49.470Z,105.18
2022-11-01T18:19:42.086Z,67.50
2022-11-01T18:22:50.756Z,60.42
2022-11-01T18:25:42.301Z,45.90
2022-11-01T18:28:23.312Z,46.92
2022-11-01T18:30:58.770Z,41.35
2022-11-01T18:33:28.982Z,41.70
2022-11-01T18:36:13.731Z,40.40
2022-11-01T18:39:07.436Z,46.67
2022-11-01T18:44:01.902Z,45.63
2022-11-01T18:46:40.406Z,41.65
2022-11-01T18:49:12.832Z,45.47
2022-11-01T18:51:39.924Z,54.72
2022-11-01T18:54:09.486Z,54.10
2022-11-01T18:56:38.527Z,55.17
2022-11-01T18:59:33.189Z,55.38
2022-11-01T19:02:14.632Z,62.17
2022-11-01T19:04:43.624Z,62.63
2022-11-01T19:07:19.181Z,69.85
2022-11-01T19:10:00.333Z,66.93
2022-11-01T19:12:33.246Z,62.85
2022-11-01T19:15:11.720Z,62.85
2022-11-01T19:17:41.373Z,68.10
2022-11-01T19:20:33.288Z,65.45
2022-11-01T19:23:03.180Z,65.78
2022-11-01T19:25:36.468Z,59.20
2022-11-01T19:28:35.506Z,70.05
2022-11-01T19:31:17.227Z,65.70
2022-11-01T19:33:46.962Z,57.58
2022-11-01T19:36:29.915Z,56.08
2022-11-01T19:38:57.165Z,68.57
2022-11-01T19:41:30.372Z,88.05
2022-11-01T19:46:26.519Z,55.55
2022-11-01T19:48:53.585Z,61.15
2022-11-01T19:51:23.693Z,55.72
2022-11-01T19:53:52.601Z,69.35
2022-11-01T19:56:19.412Z,54.22
2022-11-01T19:58:50.371Z,58.22
2022-11-01T20:01:17.732Z,51.35
2022-11-01T20:03:55.620Z,61.03
2022-11-01T20:06:22.822Z,56.35
2022-11-01T20:08:52.611Z,58.17
2022-11-01T20:11:20.125Z,50.53
2022-11-01T20:13:47.726Z,47.47
2022-11-01T20:16:14.974Z,52.60
2022-11-01T20:18:42.382Z,49.47
2022-11-01T20:21:09.646Z,57.78
2022-11-01T20:23:37.185Z,67.47
2022-11-01T20:26:04.242Z,78.05
2022-11-01T20:28:31.845Z,47.10
2022-11-01T20:30:59.010Z,59.00
2022-11-01T20:33:26.651Z,53.10
2022-11-01T20:35:53.520Z,53.63
2022-11-01T20:40:52.481Z,55.50
2022-11-01T20:43:22.404Z,62.22
2022-11-01T20:45:49.691Z,49.70
2022-11-01T20:48:18.307Z,48.88
2022-11-01T20:50:46.131Z,56.60
2022-11-01T20:53:14.881Z,52.08
2022-11-01T20:55:47.784Z,60.30
2022-11-01T20:58:15.011Z,62.38
2022-11-01T21:00:42.190Z,61.58
2022-11-01T21:03:15.070Z,61.13
2022-11-01T21:05:44.752Z,55.47
2022-11-01T21:08:24.143Z,65.68
2022-11-01T21:11:07.064Z,63.80
2022-11-01T21:13:37.652Z,59.53
2022-11-01T21:16:14.098Z,66.00
2022-11-01T21:18:44.234Z,69.72
2022-11-01T21:21:14.735Z,72.55
2022-11-01T21:23:44.530Z,70.43
2022-11-01T21:26:17.776Z,78.78
2022-11-01T21:31:13.315Z,63.25
2022-11-01T21:33:50.211Z,85.45
2022-11-01T21:36:20.272Z,88.07
2022-11-01T21:38:51.539Z,96.85
2022-11-01T21:41:33.066Z,85.03
2022-11-01T21:44:23.170Z,91.30
2022-11-01T21:46:56.049Z,107.10
2022-11-01T21:49:27.242Z,112.75
2022-11-01T21:51:56.299Z,96.80
2022-11-01T21:54:23.265Z,99.78
2022-11-01T21:56:50.269Z,93.68
2022-11-01T21:59:17.300Z,112.88
2022-11-01T22:01:46.255Z,104.88
2022-11-01T22:04:14.517Z,103.25
2022-11-01T22:06:41.483Z,100.05
2022-11-01T22:09:09.776Z,111.20
2022-11-01T22:11:37.512Z,121.07
2022-11-01T22:14:05.105Z,111.25
2022-11-01T22:16:32.441Z,104.55
2022-11-01T22:19:00.005Z,121.63
2022-11-01T22:21:27.260Z,107.18
2022-11-01T22:23:54.486Z,105.28
2022-11-01T22:26:21.901Z,107.75
2022-11-01T22:28:48.785Z,114.65
2022-11-01T22:31:16.020Z,116.05
2022-11-01T22:33:44.924Z,127.50
2022-11-01T22:36:28.579Z,108.75
2022-11-01T22:39:00.164Z,106.95
2022-11-01T22:41:31.593Z,110.28
2022-11-01T22:46:43.685Z,105.32
2022-11-01T22:49:29.115Z,99.82
2022-11-01T22:52:19.796Z,96.43
2022-11-01T22:54:48.108Z,97.13
2022-11-01T22:57:21.482Z,98.28
2022-11-01T22:59:52.568Z,92.88
2022-11-01T23:02:27.255Z,85.65
2022-11-01T23:05:06.442Z,94.63
2022-11-01T23:07:56.826Z,98.80
2022-11-01T23:10:32.361Z,95.03
2022-11-01T23:13:19.959Z,88.80
2022-11-01T23:15:47.002Z,84.68
2022-11-01T23:18:22.911Z,89.25
2022-11-01T23:21:10.148Z,93.70
2022-11-01T23:23:40.730Z,100.43
2022-11-01T23:26:07.947Z,87.45
2022-11-01T23:28:37.250Z,91.68
2022-11-01T23:31:05.130Z,92.00
2022-11-01T23:33:50.726Z,81.95
2022-11-01T23:36:22.794Z,81.30
2022-11-01T23:38:55.636Z,81.15
2022-11-01T23:41:23.733Z,83.22
2022-11-01T23:43:53.435Z,85.18
2022-11-01T23:46:20.932Z,86.88
2022-11-01T23:48:48.320Z,89.68
2022-11-01T23:51:21.098Z,88.57
2022-11-01T23:53:51.094Z,88.70
2022-11-01T23:56:20.571Z,80.03
2022-11-01T23:59:02.083Z,95.03
